METAR Data
IDs: Format: Raw Decoded Include TAF

Data at: 1211 UTC 07 Oct 2022

LYVR 071200Z 16007KT 110V200 CAVOK 22/10 Q1027 NOSIG